Time;durP1;ratioP1;P1;durP2;ratioP2;P2;SDS_P1;SDS_P2;PMS_P1;PMS_P2;Temp;Humidity;BMP_temperature;BMP_pressure;BME280_temperature;BME280_humidity;BME280_pressure;Samples;Min_cycle;Max_cycle;Signal;HPM_P1;HPM_P2
2024/04/11 00:00:22;;;;;;;31.65;6.50;;;13.90;77.90;;;;;;5426384;26;20011;-60
2024/04/11 00:02:48;;;;;;;26.55;5.32;;;13.80;77.80;;;;;;5428394;26;19995;-60
2024/04/11 00:05:14;;;;;;;22.23;5.32;;;13.80;78.00;;;;;;5396884;26;20264;-57
2024/04/11 00:07:39;;;;;;;26.20;4.38;;;13.80;78.10;;;;;;5428306;26;20002;-57
2024/04/11 00:10:05;;;;;;;27.98;4.65;;;13.70;78.20;;;;;;5426214;26;20433;-57
2024/04/11 00:12:31;;;;;;;32.25;5.20;;;13.70;78.20;;;;;;5426422;26;20007;-57
2024/04/11 00:14:57;;;;;;;19.63;4.43;;;13.70;78.30;;;;;;5426239;26;20050;-60
2024/04/11 00:17:23;;;;;;;23.67;5.30;;;13.60;78.30;;;;;;5428231;26;19996;-60
2024/04/11 00:19:48;;;;;;;22.30;4.60;;;13.60;78.30;;;;;;5425795;26;20011;-60
2024/04/11 00:22:14;;;;;;;29.13;4.95;;;13.60;78.50;;;;;;5426130;26;19992;-60
2024/04/11 00:24:41;;;;;;;20.85;3.95;;;13.60;78.50;;;;;;5426052;26;20003;-60
2024/04/11 00:27:06;;;;;;;18.98;3.80;;;13.60;78.50;;;;;;5428078;26;20007;-60
2024/04/11 00:29:32;;;;;;;18.05;4.95;;;13.50;78.50;;;;;;5427627;26;20053;-60
2024/04/11 00:31:57;;;;;;;19.25;4.80;;;13.50;78.60;;;;;;5426009;26;20329;-60
2024/04/11 00:34:23;;;;;;;23.98;4.78;;;13.50;78.60;;;;;;5426434;26;20011;-60
2024/04/11 00:36:53;;;;;;;17.70;3.65;;;13.40;78.60;;;;;;5456421;26;20046;-60
2024/04/11 00:39:19;;;;;;;19.08;4.38;;;13.40;78.70;;;;;;5425771;26;19995;-60
2024/04/11 00:41:45;;;;;;;21.30;4.07;;;13.40;78.80;;;;;;5455994;26;19996;-60
2024/04/11 00:44:11;;;;;;;18.88;4.03;;;13.40;78.80;;;;;;5396485;26;20074;-60
2024/04/11 00:46:37;;;;;;;20.83;3.90;;;13.40;78.90;;;;;;5427773;26;20012;-60
2024/04/11 00:49:03;;;;;;;17.13;3.88;;;13.40;78.90;;;;;;5425372;26;19996;-60
2024/04/11 00:51:29;;;;;;;15.43;3.90;;;13.30;78.90;;;;;;5426562;26;20006;-60
2024/04/11 00:53:58;;;;;;;16.77;4.03;;;13.30;79.00;;;;;;5455839;26;20045;-60
2024/04/11 00:56:26;;;;;;;17.08;3.05;;;13.30;79.00;;;;;;5455225;26;20014;-60
2024/04/11 00:58:52;;;;;;;13.52;3.38;;;13.20;79.10;;;;;;5456435;26;19996;-60
2024/04/11 01:01:18;;;;;;;15.57;3.40;;;13.20;79.20;;;;;;5425682;26;19999;-60
2024/04/11 01:03:44;;;;;;;13.25;3.00;;;13.20;79.20;;;;;;5427319;26;19996;-60
2024/04/11 01:06:11;;;;;;;18.77;3.17;;;13.20;79.30;;;;;;5455320;26;19995;-60
2024/04/11 01:08:36;;;;;;;17.10;3.42;;;13.20;79.40;;;;;;5455594;26;19992;-60
2024/04/11 01:11:02;;;;;;;11.07;3.45;;;13.10;79.30;;;;;;5455568;26;20018;-60
2024/04/11 01:13:29;;;;;;;11.32;2.85;;;13.10;79.40;;;;;;5427292;26;19995;-60
2024/04/11 01:15:57;;;;;;;17.98;3.20;;;13.10;79.50;;;;;;5425624;26;20419;-60
2024/04/11 01:18:25;;;;;;;10.55;2.97;;;13.10;79.50;;;;;;5425442;26;20120;-61
2024/04/11 01:20:50;;;;;;;13.18;2.67;;;13.10;79.50;;;;;;5425404;26;19999;-60
2024/04/11 01:23:16;;;;;;;17.88;3.30;;;13.00;79.60;;;;;;5434691;26;20005;-60
2024/04/11 01:25:43;;;;;;;16.80;2.83;;;13.00;79.60;;;;;;5425229;26;20015;-60
2024/04/11 01:28:09;;;;;;;13.20;3.08;;;12.90;79.60;;;;;;5427510;26;19996;-60
2024/04/11 01:30:35;;;;;;;10.07;2.33;;;12.90;79.70;;;;;;5425307;26;20002;-60
2024/04/11 01:33:00;;;;;;;12.02;3.15;;;12.90;79.80;;;;;;5425598;26;20453;-60
2024/04/11 01:35:31;;;;;;;16.48;2.85;;;12.90;79.80;;;;;;5425127;26;20010;-60
2024/04/11 01:37:59;;;;;;;14.52;2.85;;;12.90;79.80;;;;;;5425100;26;20115;-60
2024/04/11 01:40:34;;;;;;;12.80;2.78;;;12.90;79.90;;;;;;5424904;26;19992;-60
2024/04/11 01:43:00;;;;;;;8.88;2.95;;;12.80;79.80;;;;;;5424971;26;20005;-60
2024/04/11 01:45:26;;;;;;;12.60;2.92;;;12.80;79.90;;;;;;5426573;26;20035;-60
2024/04/11 01:47:53;;;;;;;15.80;3.33;;;12.80;80.10;;;;;;5425033;26;19995;-60
2024/04/11 01:50:18;;;;;;;9.55;2.47;;;12.80;80.10;;;;;;5424281;26;20023;-60
2024/04/11 01:52:44;;;;;;;12.77;3.22;;;12.70;80.00;;;;;;5424770;26;20000;-60
2024/04/11 01:55:09;;;;;;;19.83;2.90;;;12.70;80.10;;;;;;5426641;26;20003;-60
2024/04/11 01:57:37;;;;;;;9.63;3.10;;;12.70;80.10;;;;;;5426628;26;20295;-60
2024/04/11 02:00:12;;;;;;;11.93;2.88;;;12.70;80.10;;;;;;5426601;26;19999;-60
2024/04/11 02:02:40;;;;;;;;;;;12.70;80.10;;;;;;5427175;26;20014;-60
2024/04/11 02:05:05;;;;;;;11.25;2.60;;;12.70;80.10;;;;;;5424662;26;19958;-60
2024/04/11 02:07:34;;;;;;;8.82;2.40;;;12.70;80.10;;;;;;5425644;26;20000;-60
2024/04/11 02:09:59;;;;;;;7.75;2.47;;;12.60;80.20;;;;;;5460428;26;20030;-57
2024/04/11 02:12:26;;;;;;;12.30;2.53;;;12.60;80.30;;;;;;5460431;26;19995;-57
2024/04/11 02:14:52;;;;;;;7.45;2.60;;;12.60;80.40;;;;;;5460317;26;20036;-57
2024/04/11 02:17:19;;;;;;;12.52;2.83;;;12.60;80.40;;;;;;5452958;26;20000;-58
2024/04/11 02:19:45;;;;;;;9.27;2.20;;;12.60;80.60;;;;;;5424580;26;20292;-60
2024/04/11 02:22:10;;;;;;;10.23;2.47;;;12.50;80.60;;;;;;5454073;26;20025;-61
2024/04/11 02:24:36;;;;;;;10.20;2.60;;;12.50;80.60;;;;;;5394721;26;20078;-60
2024/04/11 02:27:03;;;;;;;8.43;2.92;;;12.50;80.60;;;;;;5425485;26;20004;-60
2024/04/11 02:29:28;;;;;;;8.73;2.33;;;12.50;80.70;;;;;;5424497;26;20002;-60
2024/04/11 02:31:54;;;;;;;6.18;2.00;;;12.40;80.60;;;;;;5393163;26;19995;-60
2024/04/11 02:34:20;;;;;;;9.40;2.53;;;12.40;80.80;;;;;;5422654;26;19996;-60
2024/04/11 02:36:47;;;;;;;7.55;2.40;;;12.40;80.80;;;;;;5424803;26;19999;-60
2024/04/11 02:39:14;;;;;;;7.72;2.53;;;12.40;80.90;;;;;;5428108;26;19992;-60
2024/04/11 02:41:41;;;;;;;6.50;2.10;;;12.40;80.90;;;;;;5429355;26;20095;-60
2024/04/11 02:44:07;;;;;;;8.75;2.15;;;12.30;80.90;;;;;;5429276;26;19991;-60
2024/04/11 02:46:34;;;;;;;5.20;2.20;;;12.30;81.00;;;;;;5398213;26;20361;-60
2024/04/11 02:49:00;;;;;;;8.73;2.60;;;12.30;80.90;;;;;;5429138;26;20072;-60
2024/04/11 02:51:26;;;;;;;8.32;2.35;;;12.30;81.00;;;;;;5429176;26;20077;-59
2024/04/11 02:53:53;;;;;;;5.30;2.33;;;12.30;81.00;;;;;;5427407;26;20366;-60
2024/04/11 02:56:19;;;;;;;6.38;1.80;;;12.30;81.00;;;;;;5427383;26;20403;-60
2024/04/11 02:58:44;;;;;;;7.63;1.90;;;12.30;81.10;;;;;;5427224;26;19991;-60
2024/04/11 03:01:10;;;;;;;8.50;2.28;;;12.20;81.10;;;;;;5428121;26;19991;-60
2024/04/11 03:03:37;;;;;;;6.40;1.85;;;12.20;81.20;;;;;;5427395;26;19992;-60
2024/04/11 03:06:12;;;;;;;4.68;1.92;;;12.20;81.20;;;;;;5429273;26;20046;-59
2024/04/11 03:08:41;;;;;;;5.30;2.13;;;12.20;81.20;;;;;;5427144;26;20000;-57
2024/04/11 03:11:08;;;;;;;8.05;1.98;;;12.10;81.20;;;;;;5429271;26;19996;-57
2024/04/11 03:13:33;;;;;;;7.43;2.22;;;12.20;81.30;;;;;;5427308;26;19999;-60
2024/04/11 03:16:00;;;;;;;5.90;2.00;;;12.10;81.20;;;;;;5427214;26;19995;-60
2024/04/11 03:18:26;;;;;;;4.32;1.75;;;12.10;81.40;;;;;;5427090;26;20014;-60
2024/04/11 03:20:54;;;;;;;9.40;1.98;;;12.00;81.40;;;;;;5427141;26;20003;-60
2024/04/11 03:23:20;;;;;;;7.18;1.85;;;12.00;81.40;;;;;;5428861;26;19996;-60
2024/04/11 03:25:45;;;;;;;5.13;2.28;;;12.00;81.40;;;;;;5428857;26;20284;-60
2024/04/11 03:28:11;;;;;;;4.03;1.80;;;12.00;81.50;;;;;;5428779;26;20413;-60
2024/04/11 03:30:37;;;;;;;4.05;1.67;;;12.00;81.50;;;;;;5426868;26;19996;-60
2024/04/11 03:33:03;;;;;;;3.78;1.88;;;12.00;81.50;;;;;;5397187;26;20011;-60
2024/04/11 03:35:32;;;;;;;6.47;1.90;;;12.00;81.60;;;;;;5397081;26;20018;-60
2024/04/11 03:37:58;;;;;;;5.82;2.17;;;11.90;81.70;;;;;;5428877;26;20087;-60
2024/04/11 03:40:23;;;;;;;4.93;2.17;;;11.90;81.70;;;;;;5426714;26;20104;-60
2024/04/11 03:42:49;;;;;;;8.65;2.08;;;11.90;81.80;;;;;;5428693;26;19996;-60
2024/04/11 03:45:22;;;;;;;6.78;2.13;;;11.90;81.80;;;;;;5426810;26;19992;-60
2024/04/11 03:47:48;;;;;;;4.50;1.95;;;11.90;81.90;;;;;;5426290;26;20056;-60
2024/04/11 03:50:14;;;;;;;8.18;2.20;;;11.80;81.90;;;;;;5397702;26;20011;-58
2024/04/11 03:52:41;;;;;;;5.38;2.00;;;11.80;82.00;;;;;;5427530;26;19995;-57
2024/04/11 03:55:08;;;;;;;4.93;2.00;;;11.80;82.00;;;;;;5429683;26;20045;-57
2024/04/11 03:57:35;;;;;;;5.63;1.75;;;11.80;81.90;;;;;;5428718;26;20031;-57
2024/04/11 04:00:07;;;;;;;6.15;1.98;;;11.80;82.10;;;;;;5429186;26;20087;-57
2024/04/11 04:02:33;;;;;;;5.93;1.90;;;11.80;82.10;;;;;;5426893;26;20014;-57
2024/04/11 04:04:59;;;;;;;6.55;1.80;;;11.70;82.10;;;;;;5426454;26;20010;-60
2024/04/11 04:07:28;;;;;;;4.80;2.17;;;11.70;82.20;;;;;;5428236;26;20415;-60
2024/04/11 04:09:58;;;;;;;6.93;1.83;;;11.70;82.20;;;;;;5428328;26;20019;-60
2024/04/11 04:12:24;;;;;;;5.65;2.20;;;11.70;82.30;;;;;;5426469;26;20012;-60
2024/04/11 04:14:53;;;;;;;9.80;2.08;;;11.70;82.40;;;;;;5428313;26;20002;-60
2024/04/11 04:17:19;;;;;;;4.72;1.65;;;11.70;82.40;;;;;;5426231;26;20296;-60
2024/04/11 04:19:45;;;;;;;5.00;2.03;;;11.70;82.60;;;;;;5428158;26;20007;-60
2024/04/11 04:22:13;;;;;;;5.05;1.40;;;11.60;82.60;;;;;;5426292;26;20018;-60
2024/04/11 04:24:39;;;;;;;4.82;1.83;;;11.70;82.70;;;;;;5426359;26;20002;-60
2024/04/11 04:27:06;;;;;;;5.22;1.83;;;11.60;82.80;;;;;;5426131;26;20010;-60
2024/04/11 04:29:32;;;;;;;6.20;1.85;;;11.60;82.80;;;;;;5426041;26;20068;-60
2024/04/11 04:31:58;;;;;;;5.75;2.05;;;11.60;82.80;;;;;;5427981;26;20077;-60
2024/04/11 04:34:25;;;;;;;6.32;1.90;;;11.60;82.90;;;;;;5428039;26;20003;-60
2024/04/11 04:36:51;;;;;;;15.43;2.42;;;11.60;82.90;;;;;;5427771;26;20005;-60
2024/04/11 04:39:16;;;;;;;11.85;3.03;;;11.60;83.00;;;;;;5425794;26;20011;-60
2024/04/11 04:41:42;;;;;;;20.48;3.00;;;11.60;83.10;;;;;;5396260;26;20404;-58
2024/04/11 04:44:08;;;;;;;17.13;2.72;;;11.60;83.10;;;;;;5427763;26;20450;-58
2024/04/11 04:46:34;;;;;;;12.80;3.13;;;11.60;83.10;;;;;;5425994;26;20010;-57
2024/04/11 04:49:02;;;;;;;21.40;3.42;;;11.60;83.20;;;;;;5427343;26;20018;-60
2024/04/11 04:51:28;;;;;;;17.45;2.85;;;11.60;83.20;;;;;;5425739;26;19992;-60
2024/04/11 04:53:53;;;;;;;16.23;3.65;;;11.60;83.30;;;;;;5427391;26;19999;-60
2024/04/11 04:56:21;;;;;;;16.40;3.15;;;11.60;83.40;;;;;;5427734;26;19992;-60
2024/04/11 04:58:49;;;;;;;12.63;2.83;;;11.60;83.40;;;;;;5424434;26;20000;-60
2024/04/11 05:01:15;;;;;;;15.00;2.97;;;11.60;83.60;;;;;;5427588;26;20001;-58
2024/04/11 05:03:41;;;;;;;13.82;3.63;;;11.60;83.60;;;;;;5425489;26;20003;-58
2024/04/11 05:06:12;;;;;;;20.38;3.28;;;11.60;83.70;;;;;;5425665;26;19996;-60
2024/04/11 05:08:39;;;;;;;19.80;3.20;;;11.50;83.80;;;;;;5425750;26;20097;-58
2024/04/11 05:11:10;;;;;;;14.48;3.60;;;11.50;83.90;;;;;;5396686;26;20009;-58
2024/04/11 05:13:40;;;;;;;26.75;4.80;;;11.50;83.80;;;;;;5427481;26;20031;-58
2024/04/11 05:16:06;;;;;;;21.35;4.50;;;11.60;83.80;;;;;;5427430;26;20007;-58
2024/04/11 05:18:37;;;;;;;22.77;3.88;;;11.50;83.80;;;;;;5396029;26;19999;-58
2024/04/11 05:21:20;;;;;;;28.27;4.13;;;11.50;83.90;;;;;;5425977;26;19995;-58
2024/04/11 05:23:46;;;;;;;17.67;3.80;;;11.50;83.90;;;;;;5425884;26;20003;-58
2024/04/11 05:26:14;;;;;;;29.90;4.57;;;11.50;83.90;;;;;;5427456;26;20010;-58
2024/04/11 05:28:44;;;;;;;46.75;6.10;;;11.50;83.90;;;;;;5426985;26;19996;-58
2024/04/11 05:31:12;;;;;;;80.45;9.30;;;11.50;84.00;;;;;;5425033;26;20500;-58
2024/04/11 05:33:40;;;;;;;65.97;10.32;;;11.50;84.60;;;;;;5426545;26;20003;-58
2024/04/11 05:36:06;;;;;;;56.33;7.20;;;11.50;84.40;;;;;;5425027;26;19999;-59
2024/04/11 05:38:37;;;;;;;48.70;7.10;;;11.50;84.70;;;;;;5424948;26;20014;-58
2024/04/11 05:41:09;;;;;;;59.13;7.38;;;11.50;84.80;;;;;;5424730;26;19991;-58
2024/04/11 05:43:42;;;;;;;53.08;6.55;;;11.50;84.70;;;;;;5396425;26;20149;-58
2024/04/11 05:46:09;;;;;;;32.08;5.85;;;11.50;84.60;;;;;;5426900;26;19995;-58
2024/04/11 05:48:35;;;;;;;41.80;6.78;;;11.50;84.50;;;;;;5395460;26;20015;-58
2024/04/11 05:51:05;;;;;;;25.77;5.50;;;11.50;84.40;;;;;;5454024;26;20014;-58
2024/04/11 05:53:36;;;;;;;38.90;6.78;;;11.50;84.50;;;;;;5426586;26;20035;-59
2024/04/11 05:56:12;;;;;;;42.78;6.47;;;11.50;84.50;;;;;;5426808;26;20050;-58
2024/04/11 05:58:38;;;;;;;42.30;6.25;;;11.50;84.50;;;;;;5424711;26;20007;-58
2024/04/11 06:01:05;;;;;;;28.95;6.20;;;11.50;84.50;;;;;;5426441;26;20006;-58
2024/04/11 06:03:34;;;;;;;37.15;5.85;;;11.40;84.50;;;;;;5424525;26;20018;-58
2024/04/11 06:05:59;;;;;;;30.17;6.10;;;11.50;84.50;;;;;;5410386;26;20006;-58
2024/04/11 06:08:25;;;;;;;42.53;5.68;;;11.50;84.50;;;;;;5461865;26;20027;-58
2024/04/11 06:10:51;;;;;;;37.45;6.57;;;11.50;84.40;;;;;;5462722;26;20030;-58
2024/04/11 06:13:17;;;;;;;28.50;6.63;;;11.40;84.30;;;;;;5458701;26;20003;-58
2024/04/11 06:15:43;;;;;;;28.02;5.60;;;11.40;84.40;;;;;;5460542;26;20071;-58
2024/04/11 06:18:10;;;;;;;40.65;6.53;;;11.40;84.40;;;;;;5458109;26;20118;-58
2024/04/11 06:20:38;;;;;;;31.17;6.10;;;11.40;84.40;;;;;;5470161;26;20014;-58
2024/04/11 06:23:08;;;;;;;40.97;6.15;;;11.40;84.30;;;;;;5451080;26;20007;-60
2024/04/11 06:25:37;;;;;;;25.88;5.80;;;11.40;84.30;;;;;;5405721;26;20031;-60
2024/04/11 06:28:04;;;;;;;27.02;4.75;;;11.40;84.30;;;;;;5429365;26;20075;-59
2024/04/11 06:30:30;;;;;;;35.55;5.70;;;11.40;84.40;;;;;;5452017;26;20003;-59
2024/04/11 06:32:58;;;;;;;41.85;6.13;;;11.40;84.40;;;;;;5463351;26;20078;-59
2024/04/11 06:35:27;;;;;;;36.63;5.35;;;11.40;84.40;;;;;;5465056;26;20075;-59
2024/04/11 06:37:53;;;;;;;38.83;6.63;;;11.40;84.50;;;;;;5463850;26;20429;-57
2024/04/11 06:40:19;;;;;;;44.70;5.78;;;11.40;84.50;;;;;;5445876;26;20003;-57
2024/04/11 06:42:47;;;;;;;41.53;7.38;;;11.40;84.50;;;;;;5395622;26;20074;-57
2024/04/11 06:45:16;;;;;;;29.33;6.35;;;11.50;84.70;;;;;;5433114;26;20007;-57
2024/04/11 06:47:45;;;;;;;29.60;6.43;;;11.40;84.50;;;;;;5446669;26;20015;-57
2024/04/11 06:50:11;;;;;;;38.05;5.97;;;11.40;84.40;;;;;;5440176;26;20020;-57
2024/04/11 06:52:37;;;;;;;43.97;6.22;;;11.50;84.40;;;;;;5453958;26;19995;-58
2024/04/11 06:55:08;;;;;;;41.97;5.88;;;11.40;84.30;;;;;;5404121;26;20006;-58
2024/04/11 06:57:40;;;;;;;40.20;6.07;;;11.40;84.20;;;;;;5464277;26;20122;-58
2024/04/11 07:00:14;;;;;;;22.27;5.55;;;11.40;84.20;;;;;;5478186;26;19994;-57
2024/04/11 07:02:41;;;;;;;33.45;5.32;;;11.50;84.20;;;;;;5462016;26;20055;-57
2024/04/11 07:05:07;;;;;;;29.63;5.40;;;11.40;84.20;;;;;;5448311;26;20038;-58
2024/04/11 07:07:35;;;;;;;44.85;7.03;;;11.50;84.20;;;;;;5453949;26;19996;-60
2024/04/11 07:10:15;;;;;;;49.25;6.63;;;11.50;84.20;;;;;;5449760;26;20027;-60
2024/04/11 07:12:41;;;;;;;43.15;7.22;;;11.50;84.20;;;;;;5448699;26;20015;-57
2024/04/11 07:15:10;;;;;;;49.30;7.70;;;11.50;84.20;;;;;;5454078;26;19995;-57
2024/04/11 07:17:41;;;;;;;71.85;10.27;;;11.40;84.30;;;;;;5469448;26;20031;-57
2024/04/11 07:20:09;;;;;;;65.63;9.13;;;11.50;84.70;;;;;;5451970;26;19998;-59
2024/04/11 07:22:44;;;;;;;65.55;7.35;;;11.50;84.50;;;;;;5453626;26;20021;-59
2024/04/11 07:25:13;;;;;;;48.22;8.20;;;11.50;84.50;;;;;;5458907;26;19991;-59
2024/04/11 07:27:40;;;;;;;64.05;8.23;;;11.50;84.50;;;;;;5455324;26;20008;-59
2024/04/11 07:30:11;;;;;;;68.30;9.27;;;11.50;84.50;;;;;;5459195;26;20006;-59
2024/04/11 07:32:40;;;;;;;39.58;7.50;;;11.50;84.50;;;;;;5447814;26;20014;-58
2024/04/11 07:35:06;;;;;;;72.22;8.02;;;11.50;84.50;;;;;;5452295;26;20028;-59
2024/04/11 07:37:32;;;;;;;61.10;8.70;;;11.50;84.40;;;;;;5443844;26;20056;-59
2024/04/11 07:40:00;;;;;;;57.88;9.20;;;11.50;84.40;;;;;;5442901;26;20022;-59
2024/04/11 07:42:48;;;;;;;63.58;7.68;;;11.50;84.50;;;;;;5451271;26;19995;-59
2024/04/11 07:45:17;;;;;;;69.82;8.35;;;11.50;84.50;;;;;;5459836;26;19999;-59
2024/04/11 07:47:43;;;;;;;46.15;7.43;;;11.50;84.50;;;;;;5457145;26;20003;-58
2024/04/11 07:50:11;;;;;;;51.33;6.93;;;11.50;84.40;;;;;;5455773;26;19991;-59
2024/04/11 07:52:37;;;;;;;43.95;7.25;;;11.60;84.50;;;;;;5433701;26;20419;-59
2024/04/11 07:55:04;;;;;;;39.92;6.53;;;11.50;84.40;;;;;;5416294;26;20293;-59
2024/04/11 07:57:30;;;;;;;41.33;6.40;;;11.60;84.50;;;;;;5441538;26;19994;-59
2024/04/11 07:59:59;;;;;;;46.95;6.47;;;11.60;84.40;;;;;;5456533;26;20076;-59
2024/04/11 08:02:26;;;;;;;50.97;8.05;;;11.60;84.40;;;;;;5461628;26;20019;-59
2024/04/11 08:04:52;;;;;;;58.95;8.15;;;11.60;84.50;;;;;;5458192;26;20005;-57
2024/04/11 08:07:18;;;;;;;53.88;7.80;;;11.60;84.50;;;;;;5459610;26;19994;-58
2024/04/11 08:09:55;;;;;;;47.85;6.60;;;11.60;84.40;;;;;;5463113;26;20005;-58
2024/04/11 08:12:21;;;;;;;57.33;6.60;;;11.60;84.30;;;;;;5461844;26;19999;-59
2024/04/11 08:14:47;;;;;;;40.90;6.50;;;11.70;84.50;;;;;;5450629;26;20000;-58
2024/04/11 08:17:13;;;;;;;61.00;7.57;;;11.60;84.40;;;;;;5430987;26;20375;-58
2024/04/11 08:19:39;;;;;;;58.38;7.45;;;11.70;84.40;;;;;;5443791;26;20006;-58
2024/04/11 08:22:05;;;;;;;43.92;6.25;;;11.60;84.40;;;;;;5460659;26;20006;-58
2024/04/11 08:24:31;;;;;;;48.38;6.30;;;11.60;84.40;;;;;;5456026;26;19999;-58
2024/04/11 08:26:59;;;;;;;32.03;6.30;;;11.70;84.50;;;;;;5416196;26;20014;-58
2024/04/11 08:29:25;;;;;;;32.33;5.65;;;11.70;84.40;;;;;;5460291;26;20014;-58
2024/04/11 08:31:51;;;;;;;37.50;6.13;;;11.70;84.40;;;;;;5425502;26;19995;-59
2024/04/11 08:34:20;;;;;;;39.58;6.90;;;11.70;84.50;;;;;;5447378;26;20087;-59
2024/04/11 08:36:46;;;;;;;36.65;5.82;;;11.70;84.40;;;;;;5449237;26;19998;-59
2024/04/11 08:39:14;;;;;;;42.38;5.95;;;11.70;84.40;;;;;;5457973;26;20006;-59
2024/04/11 08:41:42;;;;;;;40.33;6.88;;;11.70;84.40;;;;;;5452105;26;19992;-59
2024/04/11 08:44:08;;;;;;;40.92;6.57;;;11.80;84.50;;;;;;5458301;26;20086;-59
2024/04/11 08:46:35;;;;;;;36.13;6.18;;;11.80;84.40;;;;;;5430375;26;20022;-59
2024/04/11 08:49:03;;;;;;;34.45;6.05;;;11.80;84.50;;;;;;5430504;26;20003;-59
2024/04/11 08:51:29;;;;;;;44.03;5.88;;;11.80;84.50;;;;;;5430791;26;20429;-59
2024/04/11 08:53:54;;;;;;;55.05;8.35;;;11.90;85.00;;;;;;5428907;26;20060;-59
2024/04/11 08:56:21;;;;;;;62.08;8.52;;;11.90;85.20;;;;;;5491464;26;20003;-59
2024/04/11 08:58:47;;;;;;;48.03;8.32;;;11.90;85.30;;;;;;5460603;26;20011;-59
2024/04/11 09:01:17;;;;;;;49.20;7.72;;;11.90;85.20;;;;;;5461766;26;20063;-58
2024/04/11 09:03:46;;;;;;;40.25;5.95;;;11.90;85.00;;;;;;5429487;26;20015;-59
2024/04/11 09:06:13;;;;;;;34.80;6.78;;;12.00;84.90;;;;;;5461466;26;19999;-58
2024/04/11 09:08:40;;;;;;;40.03;6.82;;;12.00;84.80;;;;;;5491202;26;19994;-59
2024/04/11 09:11:06;;;;;;;60.78;7.25;;;12.00;84.70;;;;;;5460132;26;20014;-59
2024/04/11 09:13:32;;;;;;;45.72;6.68;;;12.00;84.70;;;;;;5461913;26;20046;-59
2024/04/11 09:16:04;;;;;;;51.15;7.00;;;11.90;84.70;;;;;;5459509;26;20440;-59
2024/04/11 09:18:30;;;;;;;44.67;5.65;;;12.00;84.80;;;;;;5430645;26;20001;-59
2024/04/11 09:21:04;;;;;;;60.03;5.97;;;12.00;84.80;;;;;;5461739;26;20013;-59
2024/04/11 09:23:51;;;;;;;36.20;5.70;;;12.10;85.00;;;;;;5460136;26;20002;-59
2024/04/11 09:26:19;;;;;;;38.78;5.72;;;12.10;84.90;;;;;;5451678;26;20027;-59
2024/04/11 09:28:45;;;;;;;39.47;5.53;;;12.10;84.50;;;;;;5459752;26;19995;-59
2024/04/11 09:31:11;;;;;;;47.30;6.35;;;12.20;84.70;;;;;;5400613;26;19998;-59
2024/04/11 09:33:39;;;;;;;42.50;6.70;;;12.10;84.80;;;;;;5393201;26;20010;-58
2024/04/11 09:36:15;;;;;;;58.90;7.07;;;12.20;85.10;;;;;;5363838;26;20024;-59
2024/04/11 09:38:42;;;;;;;56.88;6.95;;;12.20;85.20;;;;;;5411063;26;20006;-59
2024/04/11 09:41:11;;;;;;;67.20;7.80;;;12.20;84.80;;;;;;5453857;26;20011;-59
2024/04/11 09:43:41;;;;;;;80.03;10.35;;;12.30;85.10;;;;;;5459118;26;19999;-59
2024/04/11 09:46:17;;;;;;;80.40;8.30;;;12.30;85.20;;;;;;5458948;26;19995;-59
2024/04/11 09:48:44;;;;;;;;;;;12.30;85.20;;;;;;5427643;26;20009;-59
2024/04/11 09:51:10;;;;;;;51.60;7.85;;;12.40;85.20;;;;;;5430059;26;19931;-58
2024/04/11 09:53:36;;;;;;;68.07;9.00;;;12.40;85.20;;;;;;5416912;26;19995;-59
2024/04/11 09:56:05;;;;;;;61.60;7.63;;;12.40;84.80;;;;;;5481203;26;20023;-60
2024/04/11 09:58:38;;;;;;;51.83;6.82;;;12.50;84.70;;;;;;5438826;26;19996;-59
2024/04/11 10:01:14;;;;;;;67.75;7.57;;;12.50;84.40;;;;;;5455609;26;20010;-59
2024/04/11 10:03:40;;;;;;;81.93;11.57;;;12.50;84.50;;;;;;5440546;26;20010;-59
2024/04/11 10:06:24;;;;;;;95.55;10.70;;;12.50;84.70;;;;;;5455969;26;19995;-59
2024/04/11 10:08:50;;;;;;;110.18;11.50;;;12.60;84.80;;;;;;5445012;26;20023;-60
2024/04/11 10:11:19;;;;;;;160.68;14.68;;;12.60;84.90;;;;;;5459701;26;19994;-58
2024/04/11 10:13:49;;;;;;;185.85;18.35;;;12.60;84.90;;;;;;5450769;26;20005;-63
2024/04/11 10:16:32;;;;;;;149.77;13.50;;;12.70;84.70;;;;;;5453010;26;20011;-58
2024/04/11 10:19:04;;;;;;;130.23;13.25;;;12.70;84.90;;;;;;5430012;26;20056;-59
2024/04/11 10:21:33;;;;;;;132.18;12.25;;;12.80;84.50;;;;;;5423331;26;20646;-59
2024/04/11 10:24:15;;;;;;;117.28;12.40;;;12.90;84.30;;;;;;5420364;26;20010;-59
2024/04/11 10:26:44;;;;;;;121.25;11.77;;;12.90;84.10;;;;;;5445525;26;19995;-59
2024/04/11 10:29:20;;;;;;;119.10;15.40;;;13.00;84.30;;;;;;5455117;26;20293;-59
2024/04/11 10:32:07;;;;;;;86.68;11.80;;;13.00;83.40;;;;;;5459468;26;20106;-59
2024/04/11 10:34:37;;;;;;;106.05;13.00;;;13.00;83.40;;;;;;5426005;26;20046;-59
2024/04/11 10:37:03;;;;;;;157.13;16.52;;;13.00;83.20;;;;;;5454746;26;19999;-59
2024/04/11 10:39:35;;;;;;;122.05;14.23;;;13.10;83.10;;;;;;5455498;26;19999;-58
2024/04/11 10:42:02;;;;;;;141.98;14.93;;;13.10;83.10;;;;;;5437093;26;20076;-59
2024/04/11 10:44:28;;;;;;;110.93;13.55;;;13.10;83.00;;;;;;5439063;26;20310;-59
2024/04/11 10:46:55;;;;;;;81.47;10.98;;;13.20;83.00;;;;;;5440097;26;20004;-59
2024/04/11 10:49:28;;;;;;;106.15;11.40;;;13.20;82.80;;;;;;5457330;26;21127;-59
2024/04/11 10:51:58;;;;;;;98.25;12.32;;;13.30;82.80;;;;;;5394091;26;19999;-58
2024/04/11 10:54:30;;;;;;;115.03;11.63;;;13.30;82.70;;;;;;5430701;26;20027;-59
2024/04/11 10:56:55;;;;;;;94.07;12.07;;;13.30;82.80;;;;;;5456872;26;20286;-59
2024/04/11 10:59:26;;;;;;;117.22;13.55;;;13.40;82.60;;;;;;5453356;26;19991;-59
2024/04/11 11:02:07;;;;;;;131.38;14.98;;;13.40;82.40;;;;;;5487297;26;20010;-59
2024/04/11 11:04:43;;;;;;;102.75;12.02;;;13.50;82.30;;;;;;5461739;26;20010;-58
2024/04/11 11:07:12;;;;;;;90.03;12.52;;;13.50;81.90;;;;;;5402521;26;19995;-59
2024/04/11 11:09:45;;;;;;;107.38;11.32;;;13.60;82.00;;;;;;5424390;26;19994;-59
2024/04/11 11:12:11;;;;;;;96.78;11.27;;;13.60;81.90;;;;;;5457993;26;20034;-59
2024/04/11 11:14:37;;;;;;;96.18;12.18;;;13.70;82.40;;;;;;5455424;26;20010;-59
2024/04/11 11:17:07;;;;;;;93.47;11.32;;;13.70;82.40;;;;;;5413192;26;20009;-59
2024/04/11 11:19:35;;;;;;;94.40;11.30;;;13.70;82.20;;;;;;5455581;26;20026;-58
2024/04/11 11:22:01;;;;;;;117.15;13.13;;;13.80;81.90;;;;;;5450507;26;20009;-58
2024/04/11 11:24:34;;;;;;;102.90;12.35;;;13.80;81.70;;;;;;5453764;26;20007;-59
2024/04/11 11:27:01;;;;;;;61.72;9.10;;;13.90;81.40;;;;;;5461001;26;20014;-59
2024/04/11 11:29:27;;;;;;;109.95;12.07;;;14.00;81.20;;;;;;5404863;26;20000;-58
2024/04/11 11:32:01;;;;;;;74.15;10.13;;;14.00;81.50;;;;;;5503927;26;20003;-59
2024/04/11 11:34:35;;;;;;;91.00;10.50;;;14.00;81.50;;;;;;5457389;26;20094;-59
2024/04/11 11:37:01;;;;;;;67.22;8.98;;;14.10;81.30;;;;;;5423540;26;20034;-59
2024/04/11 11:39:35;;;;;;;68.40;9.88;;;14.10;81.10;;;;;;5455126;26;19995;-59
2024/04/11 11:42:20;;;;;;;75.85;9.10;;;14.20;81.60;;;;;;5451952;26;20000;-58
2024/04/11 11:47:33;;;;;;;61.60;7.90;;;14.30;80.60;;;;;;5447711;26;19996;-59
2024/04/11 11:50:01;;;;;;;54.00;9.32;;;14.40;80.60;;;;;;5394201;26;19995;-58
2024/04/11 11:52:27;;;;;;;47.33;7.40;;;14.50;80.50;;;;;;5463714;26;19999;-59
2024/04/11 11:54:54;;;;;;;52.45;7.43;;;14.60;80.40;;;;;;5457954;26;20014;-59
2024/04/11 11:57:22;;;;;;;58.25;7.65;;;14.60;80.10;;;;;;5463162;26;20007;-58
2024/04/11 11:59:48;;;;;;;62.22;6.70;;;14.70;79.90;;;;;;5474111;26;19999;-59
2024/04/11 12:02:14;;;;;;;51.15;7.18;;;14.70;79.70;;;;;;5418011;26;20011;-59
2024/04/11 12:04:40;;;;;;;45.08;6.90;;;14.80;79.80;;;;;;5428757;26;19995;-59
2024/04/11 12:07:06;;;;;;;46.25;7.45;;;14.80;79.60;;;;;;5485259;26;19998;-58
2024/04/11 12:09:31;;;;;;;37.25;6.07;;;14.90;79.50;;;;;;5479864;26;19994;-58
2024/04/11 12:12:43;;;;;;;41.42;6.72;;;15.00;79.30;;;;;;5425269;26;20118;-59
2024/04/11 12:14:54;;;;;;;46.13;5.82;;;15.10;79.10;;;;;;5444271;26;20063;-59
2024/04/11 12:17:24;;;;;;;37.65;6.22;;;15.10;78.70;;;;;;5449683;26;20010;-59
2024/04/11 12:19:53;;;;;;;49.33;7.30;;;15.20;78.40;;;;;;5471976;26;20041;-59
2024/04/11 12:22:19;;;;;;;53.10;6.55;;;15.30;78.50;;;;;;5416997;26;20027;-58
2024/04/11 12:24:50;;;;;;;62.47;7.47;;;15.40;78.30;;;;;;5460515;26;20015;-59
2024/04/11 12:27:16;;;;;;;42.30;6.13;;;15.40;78.30;;;;;;5458812;26;20002;-59
2024/04/11 12:29:43;;;;;;;53.50;6.68;;;15.50;78.40;;;;;;5418439;26;19999;-59
2024/04/11 12:32:17;;;;;;;42.78;7.45;;;15.60;78.30;;;;;;5443768;26;20018;-59
2024/04/11 12:34:45;;;;;;;41.37;6.07;;;15.70;78.20;;;;;;5460023;26;20032;-59
2024/04/11 12:37:13;;;;;;;40.65;5.70;;;15.70;78.00;;;;;;5456081;26;20339;-59
2024/04/11 12:39:45;;;;;;;33.75;5.30;;;15.80;78.00;;;;;;5456816;26;20474;-59
2024/04/11 12:42:17;;;;;;;38.40;5.43;;;15.90;78.00;;;;;;5459385;26;20058;-59
2024/04/11 12:44:46;;;;;;;48.08;5.40;;;15.90;77.90;;;;;;5459417;26;19999;-59